createdAt,value
2022-10-22T00:00:00.467Z,28.05
2022-10-22T00:02:28.105Z,28.30
2022-10-22T00:04:57.192Z,27.83
2022-10-22T00:07:24.345Z,25.42
2022-10-22T00:09:51.448Z,32.17
2022-10-22T00:12:18.774Z,29.65
2022-10-22T00:14:46.265Z,26.05
2022-10-22T00:17:13.342Z,27.90
2022-10-22T00:19:40.813Z,26.08
2022-10-22T00:22:10.161Z,25.48
2022-10-22T00:24:38.181Z,28.20
2022-10-22T00:27:05.498Z,32.42
2022-10-22T00:29:32.753Z,28.65
2022-10-22T00:31:59.670Z,29.35
2022-10-22T00:34:26.591Z,26.83
2022-10-22T00:36:53.632Z,22.42
2022-10-22T00:39:22.910Z,27.52
2022-10-22T00:41:51.489Z,23.58
2022-10-22T00:44:55.814Z,29.08
2022-10-22T00:47:24.061Z,25.17
2022-10-22T00:49:53.990Z,25.48
2022-10-22T00:52:21.995Z,22.38
2022-10-22T00:54:50.054Z,24.48
2022-10-22T00:57:19.891Z,25.92
2022-10-22T00:59:47.848Z,26.05
2022-10-22T01:02:15.380Z,22.85
2022-10-22T01:04:42.675Z,23.23
2022-10-22T01:07:17.624Z,20.90
2022-10-22T01:10:01.976Z,22.42
2022-10-22T01:12:42.778Z,21.90
2022-10-22T01:16:03.316Z,22.65
2022-10-22T01:18:59.830Z,23.15
2022-10-22T01:21:51.895Z,22.03
2022-10-22T01:24:26.143Z,26.02
2022-10-22T01:27:14.175Z,29.45
2022-10-22T01:29:51.600Z,23.60
2022-10-22T01:32:23.383Z,22.48
2022-10-22T01:34:55.826Z,25.90
2022-10-22T01:37:26.992Z,23.42
2022-10-22T01:39:56.104Z,23.65
2022-10-22T01:42:24.002Z,19.90
2022-10-22T01:44:50.844Z,22.90
2022-10-22T01:47:42.397Z,23.92
2022-10-22T01:50:22.502Z,21.20
2022-10-22T01:53:23.350Z,21.27
2022-10-22T01:56:27.452Z,23.20
2022-10-22T01:59:26.361Z,23.38
2022-10-22T02:02:28.129Z,22.17
2022-10-22T02:05:32.691Z,25.48
2022-10-22T02:08:12.535Z,33.08
2022-10-22T02:10:43.701Z,25.20
2022-10-22T02:13:26.755Z,28.60
2022-10-22T02:15:55.950Z,26.17
2022-10-22T02:18:27.582Z,25.80
2022-10-22T02:20:55.338Z,23.35
2022-10-22T02:23:22.579Z,24.20
2022-10-22T02:25:56.383Z,20.48
2022-10-22T02:28:49.387Z,21.80
2022-10-22T02:31:21.878Z,23.65
2022-10-22T02:33:54.955Z,23.77
2022-10-22T02:36:23.752Z,18.52
2022-10-22T02:38:52.359Z,22.25
2022-10-22T02:41:20.483Z,21.73
2022-10-22T02:43:56.962Z,20.52
2022-10-22T02:46:25.896Z,20.73
2022-10-22T02:48:52.708Z,21.40
2022-10-22T02:51:19.516Z,20.13
2022-10-22T02:53:46.413Z,21.52
2022-10-22T02:56:14.354Z,18.35
2022-10-22T02:58:41.376Z,22.33
2022-10-22T03:01:10.281Z,21.75
2022-10-22T03:03:39.245Z,18.25
2022-10-22T03:06:06.316Z,20.65
2022-10-22T03:08:33.398Z,23.95
2022-10-22T03:11:00.287Z,19.45
2022-10-22T03:13:27.111Z,25.77
2022-10-22T03:15:53.994Z,25.65
2022-10-22T03:18:20.866Z,22.77
2022-10-22T03:20:47.775Z,29.25
2022-10-22T03:23:20.036Z,23.05
2022-10-22T03:25:50.308Z,22.98
2022-10-22T03:28:18.873Z,23.90
2022-10-22T03:30:45.676Z,21.25
2022-10-22T03:33:12.814Z,19.27
2022-10-22T03:35:46.281Z,21.88
2022-10-22T03:38:14.598Z,22.00
2022-10-22T03:40:44.487Z,19.85
2022-10-22T03:43:11.608Z,21.75
2022-10-22T03:48:10.166Z,19.83
2022-10-22T03:50:37.036Z,22.52
2022-10-22T03:53:04.533Z,19.20
2022-10-22T03:55:34.061Z,22.40
2022-10-22T03:58:00.997Z,21.95
2022-10-22T04:00:27.815Z,22.05
2022-10-22T04:02:54.646Z,30.35
2022-10-22T04:05:21.598Z,21.33
2022-10-22T04:07:48.386Z,19.40
2022-10-22T04:10:15.307Z,22.85
2022-10-22T04:12:42.168Z,21.73
2022-10-22T04:15:09.515Z,25.30
2022-10-22T04:17:37.790Z,26.08
2022-10-22T04:20:06.076Z,20.95
2022-10-22T04:22:37.004Z,18.85
2022-10-22T04:25:05.296Z,17.85
2022-10-22T04:27:33.372Z,23.75
2022-10-22T04:30:00.152Z,23.40
2022-10-22T04:32:28.107Z,22.15
2022-10-22T04:34:54.922Z,24.65
2022-10-22T04:37:22.154Z,19.60
2022-10-22T04:39:49.247Z,23.50
2022-10-22T04:42:16.054Z,21.05
2022-10-22T04:44:43.128Z,21.08
2022-10-22T04:47:09.937Z,22.73
2022-10-22T04:49:36.787Z,28.63
2022-10-22T04:52:03.816Z,23.88
2022-10-22T04:54:33.047Z,23.98
2022-10-22T04:57:18.592Z,23.58
2022-10-22T04:59:45.564Z,27.33
2022-10-22T05:02:12.445Z,19.30
2022-10-22T05:04:39.261Z,20.13
2022-10-22T05:07:06.214Z,22.77
2022-10-22T05:09:33.035Z,20.48
2022-10-22T05:11:59.905Z,24.98
2022-10-22T05:14:26.864Z,26.35
2022-10-22T05:16:54.522Z,17.58
2022-10-22T05:19:30.228Z,23.23
2022-10-22T05:21:59.747Z,22.57
2022-10-22T05:24:27.559Z,16.70
2022-10-22T05:27:14.269Z,19.40
2022-10-22T05:29:41.071Z,19.17
2022-10-22T05:32:08.022Z,25.38
2022-10-22T05:34:36.351Z,20.88
2022-10-22T05:37:03.266Z,21.88
2022-10-22T05:39:30.075Z,17.50
2022-10-22T05:41:57.005Z,26.15
2022-10-22T05:44:23.783Z,17.58
2022-10-22T05:46:50.775Z,22.25
2022-10-22T05:49:17.709Z,26.27
2022-10-22T05:51:44.506Z,19.50
2022-10-22T05:54:22.372Z,22.80
2022-10-22T05:56:49.346Z,27.08
2022-10-22T05:59:16.171Z,30.55
2022-10-22T06:01:43.056Z,23.20
2022-10-22T06:04:12.727Z,22.85
2022-10-22T06:06:42.471Z,18.52
2022-10-22T06:09:20.446Z,25.98
2022-10-22T06:11:47.571Z,24.60
2022-10-22T06:14:15.002Z,22.90
2022-10-22T06:16:41.958Z,25.15
2022-10-22T06:19:11.632Z,19.85
2022-10-22T06:21:38.664Z,21.48
2022-10-22T06:24:06.236Z,18.92
2022-10-22T06:26:33.092Z,21.30
2022-10-22T06:29:00.343Z,24.15
2022-10-22T06:31:28.043Z,27.30
2022-10-22T06:33:56.480Z,23.83
2022-10-22T06:36:24.646Z,26.67
2022-10-22T06:38:53.420Z,18.83
2022-10-22T06:41:23.039Z,21.42
2022-10-22T06:43:54.196Z,31.27
2022-10-22T06:46:22.059Z,26.67
2022-10-22T06:49:07.577Z,21.60
2022-10-22T06:51:34.469Z,25.77
2022-10-22T06:54:01.342Z,21.50
2022-10-22T06:56:29.438Z,20.77
2022-10-22T06:58:58.357Z,22.77
2022-10-22T07:01:43.745Z,19.60
2022-10-22T07:04:11.292Z,23.40
2022-10-22T07:06:38.150Z,17.30
2022-10-22T07:09:05.110Z,16.67
2022-10-22T07:11:39.694Z,18.00
2022-10-22T07:14:06.576Z,16.73
2022-10-22T07:16:33.588Z,22.38
2022-10-22T07:19:02.277Z,15.38
2022-10-22T07:21:30.515Z,17.15
2022-10-22T07:23:57.786Z,17.50
2022-10-22T07:26:25.680Z,23.70
2022-10-22T07:28:52.576Z,21.58
2022-10-22T07:31:19.899Z,17.40
2022-10-22T07:33:46.766Z,20.77
2022-10-22T07:36:18.044Z,17.35
2022-10-22T07:38:46.928Z,13.90
2022-10-22T07:41:15.311Z,19.02
2022-10-22T07:43:42.526Z,18.02
2022-10-22T07:46:09.647Z,20.42
2022-10-22T07:48:37.286Z,15.38
2022-10-22T07:51:05.759Z,20.83
2022-10-22T07:53:33.339Z,18.40
2022-10-22T07:56:00.132Z,22.88
2022-10-22T07:58:26.946Z,19.88
2022-10-22T08:00:58.770Z,21.63
2022-10-22T08:03:25.666Z,23.85
2022-10-22T08:05:52.975Z,23.08
2022-10-22T08:08:20.066Z,23.10
2022-10-22T08:10:47.855Z,22.98
2022-10-22T08:13:15.560Z,16.75
2022-10-22T08:18:15.378Z,18.90
2022-10-22T08:20:42.756Z,16.73
2022-10-22T08:23:09.548Z,17.67
2022-10-22T08:25:36.486Z,16.42
2022-10-22T08:28:03.523Z,15.98
2022-10-22T08:30:30.433Z,15.55
2022-10-22T08:32:57.432Z,16.35
2022-10-22T08:35:24.599Z,20.60
2022-10-22T08:37:51.577Z,20.48
2022-10-22T08:40:39.014Z,19.80
2022-10-22T08:43:18.588Z,17.17
2022-10-22T08:46:03.886Z,19.98
2022-10-22T08:48:44.866Z,15.85
2022-10-22T08:51:21.569Z,23.52
2022-10-22T08:54:14.841Z,19.40
2022-10-22T08:56:45.685Z,16.52
2022-10-22T08:59:20.622Z,13.40
2022-10-22T09:02:10.530Z,15.50
2022-10-22T09:04:49.331Z,22.35
2022-10-22T09:07:16.368Z,16.92
2022-10-22T09:09:49.341Z,17.10
2022-10-22T09:12:20.228Z,19.85
2022-10-22T09:14:47.609Z,19.63
2022-10-22T09:17:35.533Z,23.52
2022-10-22T09:20:26.992Z,18.27
2022-10-22T09:23:05.562Z,17.65
2022-10-22T09:25:36.912Z,20.30
2022-10-22T09:28:05.907Z,14.82
2022-10-22T09:30:38.156Z,16.25
2022-10-22T09:33:14.670Z,25.17
2022-10-22T09:35:59.411Z,19.45
2022-10-22T09:38:32.101Z,21.25
2022-10-22T09:41:00.730Z,26.48
2022-10-22T09:43:27.718Z,22.33
2022-10-22T09:46:02.547Z,19.42
2022-10-22T09:48:36.732Z,24.73
2022-10-22T09:51:16.551Z,27.48
2022-10-22T09:53:46.475Z,33.75
2022-10-22T09:56:41.017Z,22.30
2022-10-22T09:59:18.495Z,19.10
2022-10-22T10:01:45.730Z,23.63
2022-10-22T10:04:15.391Z,17.38
2022-10-22T10:06:44.782Z,21.20
2022-10-22T10:09:20.786Z,38.50
2022-10-22T10:12:05.911Z,20.45
2022-10-22T10:14:47.791Z,23.25
2022-10-22T10:17:39.930Z,25.45
2022-10-22T10:20:31.160Z,22.95
2022-10-22T10:23:00.919Z,23.25
2022-10-22T10:25:42.880Z,24.23
2022-10-22T10:28:23.722Z,32.85
2022-10-22T10:31:27.791Z,26.55
2022-10-22T10:34:37.498Z,20.38
2022-10-22T10:37:26.380Z,23.23
2022-10-22T10:40:19.822Z,21.67
2022-10-22T10:42:58.104Z,25.15
2022-10-22T10:45:37.211Z,18.00
2022-10-22T10:48:09.943Z,28.13
2022-10-22T10:50:55.092Z,21.65
2022-10-22T10:53:30.771Z,22.00
2022-10-22T10:55:57.608Z,26.03
2022-10-22T10:58:53.892Z,20.63
2022-10-22T11:01:47.342Z,27.08
2022-10-22T11:04:42.212Z,22.00
2022-10-22T11:07:30.279Z,26.13
2022-10-22T11:10:13.822Z,21.70
2022-10-22T11:12:46.082Z,28.02
2022-10-22T11:15:28.462Z,26.02
2022-10-22T11:17:59.722Z,16.83
2022-10-22T11:20:39.910Z,26.17
2022-10-22T11:23:20.655Z,20.38
2022-10-22T11:25:49.902Z,24.95
2022-10-22T11:28:22.642Z,19.80
2022-10-22T11:30:57.182Z,24.30
2022-10-22T11:33:29.489Z,22.77
2022-10-22T11:35:59.623Z,33.83
2022-10-22T11:38:27.160Z,21.60
2022-10-22T11:41:01.552Z,25.13
2022-10-22T11:43:51.979Z,23.00
2022-10-22T11:46:18.772Z,27.80
2022-10-22T11:49:02.045Z,20.83
2022-10-22T11:51:38.213Z,20.95
2022-10-22T11:54:29.737Z,27.52
2022-10-22T11:57:27.915Z,20.88
2022-10-22T11:59:59.991Z,20.75
2022-10-22T12:02:32.647Z,25.55
2022-10-22T12:05:24.227Z,25.70
2022-10-22T12:07:58.594Z,22.35
2022-10-22T12:10:29.581Z,18.98
2022-10-22T12:13:00.723Z,23.10
2022-10-22T12:15:28.939Z,25.52
2022-10-22T12:18:05.942Z,20.35
2022-10-22T12:20:32.873Z,18.20
2022-10-22T12:23:00.291Z,18.27
2022-10-22T12:25:35.486Z,23.63
2022-10-22T12:28:02.973Z,27.77
2022-10-22T12:30:37.347Z,23.25
2022-10-22T12:33:08.160Z,23.15
2022-10-22T12:35:43.843Z,22.42
2022-10-22T12:38:20.424Z,21.33
2022-10-22T12:43:19.659Z,20.38
2022-10-22T12:45:49.599Z,19.60
2022-10-22T12:48:27.451Z,26.77
2022-10-22T12:50:57.063Z,26.40
2022-10-22T12:53:30.803Z,24.92
2022-10-22T12:56:02.612Z,23.83
2022-10-22T12:58:39.837Z,26.35
2022-10-22T13:01:07.303Z,21.45
2022-10-22T13:03:38.777Z,20.35
2022-10-22T13:06:34.392Z,35.65
2022-10-22T13:09:27.466Z,24.00
2022-10-22T13:12:05.011Z,26.05
2022-10-22T13:14:34.910Z,28.92
2022-10-22T13:17:15.077Z,24.10
2022-10-22T13:19:46.313Z,20.13
2022-10-22T13:22:36.885Z,19.85
2022-10-22T13:25:16.150Z,23.60
2022-10-22T13:27:50.078Z,21.67
2022-10-22T13:30:27.820Z,23.08
2022-10-22T13:33:03.405Z,23.40
2022-10-22T13:35:36.206Z,21.33
2022-10-22T13:38:06.327Z,16.83
2022-10-22T13:40:33.203Z,21.67
2022-10-22T13:42:59.983Z,21.65
2022-10-22T13:45:26.877Z,23.60
2022-10-22T13:47:55.199Z,20.65
2022-10-22T13:50:22.149Z,18.52
2022-10-22T13:52:57.138Z,38.80
2022-10-22T13:55:30.289Z,28.13
2022-10-22T13:58:03.570Z,21.00
2022-10-22T14:00:31.294Z,27.48
2022-10-22T14:02:59.661Z,25.50
2022-10-22T14:05:26.494Z,26.83
2022-10-22T14:07:53.812Z,26.92
2022-10-22T14:10:24.903Z,26.70
2022-10-22T14:12:53.810Z,25.33
2022-10-22T14:15:26.314Z,32.25
2022-10-22T14:17:57.343Z,27.13
2022-10-22T14:20:27.976Z,23.98
2022-10-22T14:22:55.323Z,38.88
2022-10-22T14:25:25.603Z,26.65
2022-10-22T14:27:52.892Z,33.08
2022-10-22T14:30:22.711Z,25.40
2022-10-22T14:32:50.333Z,37.13
2022-10-22T14:35:21.618Z,31.60
2022-10-22T14:37:48.514Z,33.15
2022-10-22T14:40:20.584Z,34.83
2022-10-22T14:42:49.023Z,28.25
2022-10-22T14:45:23.147Z,30.75
2022-10-22T14:47:51.163Z,37.40
2022-10-22T14:50:19.474Z,32.63
2022-10-22T14:52:46.382Z,28.20
2022-10-22T14:55:16.003Z,37.67
2022-10-22T14:57:43.221Z,36.90
2022-10-22T15:00:13.696Z,29.67
2022-10-22T15:02:40.996Z,30.65
2022-10-22T15:05:08.772Z,35.10
2022-10-22T15:07:35.842Z,39.53
2022-10-22T15:10:04.544Z,30.42
2022-10-22T15:12:31.539Z,28.35
2022-10-22T15:14:58.439Z,29.67
2022-10-22T15:17:25.540Z,39.50
2022-10-22T15:19:53.303Z,35.15
2022-10-22T15:22:20.263Z,42.80
2022-10-22T15:24:48.671Z,34.33
2022-10-22T15:27:15.937Z,34.88
2022-10-22T15:29:43.244Z,32.28
2022-10-22T15:32:10.686Z,28.90
2022-10-22T15:34:38.866Z,34.97
2022-10-22T15:37:08.534Z,33.75
2022-10-22T15:39:36.263Z,30.92
2022-10-22T15:42:03.122Z,26.67
2022-10-22T15:44:31.727Z,32.05
2022-10-22T15:46:59.168Z,28.83
2022-10-22T15:49:27.932Z,32.33
2022-10-22T15:51:55.444Z,37.30
2022-10-22T15:54:25.683Z,47.72
2022-10-22T15:56:52.619Z,32.97
2022-10-22T15:59:19.673Z,30.92
2022-10-22T16:01:47.132Z,35.35
2022-10-22T16:04:14.874Z,36.28
2022-10-22T16:06:45.225Z,42.88
2022-10-22T16:09:15.382Z,36.53
2022-10-22T16:11:43.064Z,34.75
2022-10-22T16:14:15.257Z,45.85
2022-10-22T16:16:47.651Z,33.22
2022-10-22T16:19:16.694Z,38.17
2022-10-22T16:21:44.888Z,32.40
2022-10-22T16:24:12.693Z,40.72
2022-10-22T16:26:39.562Z,37.50
2022-10-22T16:29:25.181Z,36.80
2022-10-22T16:31:52.436Z,38.97
2022-10-22T16:34:19.237Z,44.45
2022-10-22T16:36:46.060Z,45.28
2022-10-22T16:39:13.042Z,47.42
2022-10-22T16:41:40.031Z,46.00
2022-10-22T16:44:08.837Z,41.53
2022-10-22T16:46:38.763Z,46.95
2022-10-22T16:49:06.326Z,47.80
2022-10-22T16:51:33.772Z,45.38
2022-10-22T16:54:00.644Z,50.15
2022-10-22T16:56:27.552Z,50.95
2022-10-22T16:58:57.083Z,73.82
2022-10-22T17:01:26.660Z,77.95
2022-10-22T17:03:56.863Z,76.10
2022-10-22T17:06:24.885Z,82.43
2022-10-22T17:08:51.849Z,76.05
2022-10-22T17:11:40.160Z,66.13
2022-10-22T17:14:09.672Z,71.82
2022-10-22T17:16:36.512Z,64.07
2022-10-22T17:19:04.422Z,59.25
2022-10-22T17:21:31.382Z,65.30
2022-10-22T17:23:58.512Z,61.28
2022-10-22T17:26:27.025Z,73.10
2022-10-22T17:28:54.863Z,72.63
2022-10-22T17:31:21.636Z,59.72
2022-10-22T17:33:50.326Z,68.03
2022-10-22T17:36:18.966Z,71.05
2022-10-22T17:38:49.613Z,68.15
2022-10-22T17:41:19.471Z,74.72
2022-10-22T17:43:47.579Z,85.55
2022-10-22T17:46:23.650Z,86.20
2022-10-22T17:49:04.910Z,82.35
2022-10-22T17:51:32.391Z,94.97
2022-10-22T17:53:59.392Z,86.50
2022-10-22T17:56:30.071Z,81.28
2022-10-22T17:58:57.321Z,78.35
2022-10-22T18:01:29.392Z,76.97
2022-10-22T18:04:00.505Z,81.30
2022-10-22T18:06:28.143Z,79.63
2022-10-22T18:08:54.970Z,69.78
2022-10-22T18:11:24.542Z,63.58
2022-10-22T18:13:53.367Z,66.60
2022-10-22T18:16:20.779Z,76.47
2022-10-22T18:18:55.810Z,74.63
2022-10-22T18:21:24.251Z,74.95
2022-10-22T18:23:51.278Z,77.53
2022-10-22T18:26:21.368Z,72.30
2022-10-22T18:28:51.151Z,69.00
2022-10-22T18:31:20.591Z,70.20
2022-10-22T18:33:48.389Z,79.05
2022-10-22T18:36:19.269Z,73.60
2022-10-22T18:38:50.983Z,74.90
2022-10-22T18:41:17.842Z,64.45
2022-10-22T18:43:44.759Z,65.75
2022-10-22T18:46:11.610Z,78.60
2022-10-22T18:48:38.390Z,73.13
2022-10-22T18:51:07.791Z,68.90
2022-10-22T18:53:36.383Z,75.22
2022-10-22T18:56:08.384Z,69.38
2022-10-22T18:58:43.236Z,72.75
2022-10-22T19:01:12.799Z,73.72
2022-10-22T19:03:41.339Z,77.10
2022-10-22T19:06:08.699Z,73.50
2022-10-22T19:08:37.059Z,67.05
2022-10-22T19:11:10.780Z,72.38
2022-10-22T19:13:37.927Z,76.25
2022-10-22T19:16:06.711Z,74.65
2022-10-22T19:18:34.268Z,75.80
2022-10-22T19:21:02.191Z,57.20
2022-10-22T19:23:30.693Z,61.78
2022-10-22T19:26:05.935Z,62.17
2022-10-22T19:28:33.512Z,64.18
2022-10-22T19:31:00.387Z,64.93
2022-10-22T19:33:28.091Z,59.42
2022-10-22T19:35:54.866Z,50.38
2022-10-22T19:38:21.750Z,48.03
2022-10-22T19:40:48.635Z,51.72
2022-10-22T19:43:18.881Z,46.72
2022-10-22T19:45:45.953Z,44.22
2022-10-22T19:48:12.776Z,43.50
2022-10-22T19:50:39.547Z,41.60
2022-10-22T19:53:06.327Z,29.70
2022-10-22T19:55:33.183Z,43.70
2022-10-22T19:58:00.015Z,32.50
2022-10-22T20:00:28.482Z,40.05
2022-10-22T20:02:55.331Z,33.15
2022-10-22T20:07:49.766Z,34.63
2022-10-22T20:10:16.743Z,29.55
2022-10-22T20:12:43.572Z,33.22
2022-10-22T20:15:10.482Z,32.45
2022-10-22T20:17:37.504Z,37.00
2022-10-22T20:20:04.705Z,37.03
2022-10-22T20:22:31.488Z,33.30
2022-10-22T20:24:58.366Z,33.30
2022-10-22T20:27:25.138Z,38.95
2022-10-22T20:29:51.933Z,40.38
2022-10-22T20:32:18.903Z,27.85
2022-10-22T20:34:46.060Z,33.28
2022-10-22T20:37:12.831Z,27.65
2022-10-22T20:39:39.746Z,31.05
2022-10-22T20:42:06.547Z,26.45
2022-10-22T20:44:33.372Z,30.60
2022-10-22T20:47:00.264Z,28.25
2022-10-22T20:49:27.150Z,26.80
2022-10-22T20:51:53.961Z,25.63
2022-10-22T20:54:20.886Z,22.98
2022-10-22T20:56:48.226Z,25.52
2022-10-22T20:59:15.637Z,34.20
2022-10-22T21:01:49.344Z,20.83
2022-10-22T21:04:17.302Z,23.90
2022-10-22T21:06:44.203Z,21.05
2022-10-22T21:09:13.150Z,24.35
2022-10-22T21:11:41.058Z,26.63
2022-10-22T21:14:10.101Z,21.88
2022-10-22T21:16:41.413Z,26.73
2022-10-22T21:19:08.282Z,29.08
2022-10-22T21:21:35.216Z,29.33
2022-10-22T21:24:02.084Z,20.75
2022-10-22T21:26:28.985Z,29.20
2022-10-22T21:28:56.177Z,73.75
2022-10-22T21:31:26.052Z,35.92
2022-10-22T21:33:53.883Z,58.95
2022-10-22T21:36:23.198Z,35.22
2022-10-22T21:38:54.058Z,41.97
2022-10-22T21:41:24.036Z,32.88
2022-10-22T21:43:51.888Z,32.00
2022-10-22T21:46:24.338Z,41.47
2022-10-22T21:48:59.381Z,41.53
2022-10-22T21:51:26.404Z,36.80
2022-10-22T21:53:53.518Z,39.17
2022-10-22T21:56:30.426Z,37.03
2022-10-22T21:58:57.202Z,30.55
2022-10-22T22:01:24.801Z,28.65
2022-10-22T22:03:52.895Z,36.15
2022-10-22T22:06:22.891Z,26.40
2022-10-22T22:08:51.823Z,26.67
2022-10-22T22:11:24.662Z,33.15
2022-10-22T22:13:53.224Z,34.25
2022-10-22T22:16:27.128Z,28.98
2022-10-22T22:18:57.246Z,23.20
2022-10-22T22:21:30.372Z,34.47
2022-10-22T22:23:58.102Z,25.73
2022-10-22T22:26:29.639Z,19.25
2022-10-22T22:29:00.520Z,24.80
2022-10-22T22:33:32.383Z,23.52
2022-10-22T22:35:59.866Z,24.63
2022-10-22T22:38:26.679Z,26.77
2022-10-22T22:40:53.579Z,22.48
2022-10-22T22:43:20.538Z,17.73
2022-10-22T22:45:47.392Z,19.08
2022-10-22T22:48:14.713Z,23.35
2022-10-22T22:50:41.495Z,19.63
2022-10-22T22:53:08.276Z,18.98
2022-10-22T22:55:35.242Z,16.35
2022-10-22T22:58:02.194Z,20.92
2022-10-22T23:00:29.085Z,16.73
2022-10-22T23:02:56.278Z,15.52
2022-10-22T23:05:23.252Z,14.20
2022-10-22T23:07:50.078Z,20.35
2022-10-22T23:10:17.178Z,19.35
2022-10-22T23:12:44.487Z,17.25
2022-10-22T23:15:11.708Z,19.02
2022-10-22T23:17:38.890Z,16.25
2022-10-22T23:20:06.702Z,12.10
2022-10-22T23:22:33.572Z,20.58
2022-10-22T23:25:00.449Z,17.35
2022-10-22T23:27:27.545Z,14.90
2022-10-22T23:29:54.372Z,19.45
2022-10-22T23:32:21.216Z,15.35
2022-10-22T23:34:48.188Z,14.43
2022-10-22T23:37:15.014Z,22.20
2022-10-22T23:39:41.903Z,14.15
2022-10-22T23:42:08.791Z,16.58
2022-10-22T23:44:39.581Z,26.95
2022-10-22T23:47:06.448Z,14.52
2022-10-22T23:49:33.303Z,13.18
2022-10-22T23:52:00.130Z,23.60
2022-10-22T23:54:27.040Z,20.50
2022-10-22T23:56:53.866Z,14.95
2022-10-22T23:59:21.373Z,16.20
